Time;durP1;ratioP1;P1;durP2;ratioP2;P2;SDS_P1;SDS_P2;PMS_P1;PMS_P2;Temp;Humidity;BMP_temperature;BMP_pressure;BME280_temperature;BME280_humidity;BME280_pressure;Samples;Min_cycle;Max_cycle;Signal;HPM_P1;HPM_P2
2021/06/01 00:00:10;;;;;;;1.20;1.00;;;11.00;98.00;;;;;;5051689;28;20508;-71
2021/06/01 00:02:37;;;;;;;1.30;1.20;;;10.90;98.00;;;;;;5050691;28;20980;-71
2021/06/01 00:05:06;;;;;;;1.30;1.17;;;10.90;98.00;;;;;;5051704;28;20489;-71
2021/06/01 00:07:34;;;;;;;1.40;1.20;;;10.90;98.00;;;;;;5048420;28;20491;-71
2021/06/01 00:10:01;;;;;;;1.20;0.90;;;10.90;98.00;;;;;;5051557;28;20494;-71
2021/06/01 00:12:28;;;;;;;1.20;1.00;;;11.00;98.00;;;;;;5049494;28;20874;-71
2021/06/01 00:14:54;;;;;;;1.20;1.10;;;10.90;98.00;;;;;;5051516;28;20525;-71
2021/06/01 00:17:21;;;;;;;1.20;1.10;;;10.90;98.00;;;;;;5049575;28;20823;-71
2021/06/01 00:19:47;;;;;;;1.20;1.00;;;10.70;98.00;;;;;;5051252;28;20461;-71
2021/06/01 00:22:14;;;;;;;1.50;1.10;;;10.80;98.00;;;;;;5049721;28;20462;-71
2021/06/01 00:24:42;;;;;;;1.73;1.30;;;10.70;98.00;;;;;;5051392;28;20986;-71
2021/06/01 00:27:08;;;;;;;1.50;1.13;;;10.60;98.00;;;;;;5049043;28;20481;-70
2021/06/01 00:29:35;;;;;;;1.27;1.13;;;10.60;98.00;;;;;;5051412;28;20463;-71
2021/06/01 00:32:01;;;;;;;1.20;0.90;;;10.60;98.00;;;;;;5049854;28;20826;-72
2021/06/01 00:34:28;;;;;;;2.47;1.10;;;10.60;98.00;;;;;;5051464;28;20465;-71
2021/06/01 00:36:55;;;;;;;1.40;1.30;;;10.40;98.00;;;;;;5050369;28;20460;-73
2021/06/01 00:39:21;;;;;;;1.40;1.20;;;10.40;98.00;;;;;;5049565;28;20464;-71
2021/06/01 00:41:52;;;;;;;1.20;1.10;;;10.50;98.00;;;;;;5051004;28;20449;-71
2021/06/01 00:44:20;;;;;;;2.43;1.57;;;10.30;98.00;;;;;;5049027;28;20469;-71
2021/06/01 00:46:46;;;;;;;1.20;1.00;;;10.30;98.00;;;;;;5050925;28;20461;-71
2021/06/01 00:49:13;;;;;;;1.30;1.10;;;10.30;98.00;;;;;;5048681;28;21027;-70
2021/06/01 00:51:39;;;;;;;1.20;1.00;;;10.30;98.00;;;;;;5050892;28;20463;-71
2021/06/01 00:54:07;;;;;;;1.40;1.17;;;10.30;98.00;;;;;;5049001;28;20465;-71
2021/06/01 00:56:33;;;;;;;1.20;1.10;;;10.30;98.00;;;;;;5049858;28;20814;-71
2021/06/01 00:59:01;;;;;;;1.60;1.50;;;10.00;98.00;;;;;;5048915;28;20490;-71
2021/06/01 01:01:28;;;;;;;1.60;1.10;;;9.90;98.00;;;;;;5049693;28;20460;-71
2021/06/01 01:03:55;;;;;;;1.50;1.27;;;9.80;98.00;;;;;;5048853;28;20503;-70
2021/06/01 01:06:36;;;;;;;2.33;1.20;;;9.90;98.00;;;;;;5051001;28;20657;-70
2021/06/01 01:09:10;;;;;;;1.63;1.30;;;9.80;98.00;;;;;;5048463;28;20527;-71
2021/06/01 01:11:48;;;;;;;1.20;1.10;;;9.80;98.00;;;;;;5050797;28;20453;-71
2021/06/01 01:14:22;;;;;;;1.20;1.00;;;9.80;98.00;;;;;;5048833;28;20616;-71
2021/06/01 01:16:57;;;;;;;1.50;1.30;;;9.70;98.00;;;;;;5050686;28;20517;-71
2021/06/01 01:19:40;;;;;;;1.40;1.10;;;9.70;98.00;;;;;;5048700;28;20459;-70
2021/06/01 01:22:07;;;;;;;1.20;1.00;;;9.80;98.00;;;;;;5048913;28;20569;-71
2021/06/01 01:24:41;;;;;;;1.43;1.10;;;9.90;98.00;;;;;;5050735;28;20994;-70
2021/06/01 01:27:16;;;;;;;1.90;1.27;;;9.90;98.00;;;;;;5048702;28;20499;-71
2021/06/01 01:29:45;;;;;;;1.20;1.00;;;10.00;98.00;;;;;;5050623;28;20471;-70
2021/06/01 01:32:22;;;;;;;1.43;1.33;;;10.00;98.00;;;;;;5048666;28;20490;-71
2021/06/01 01:34:51;;;;;;;1.30;1.20;;;9.90;98.00;;;;;;5050168;28;20522;-70
2021/06/01 01:37:18;;;;;;;1.30;1.10;;;9.70;98.00;;;;;;5048683;28;20532;-70
2021/06/01 01:39:50;;;;;;;1.20;1.00;;;9.50;98.00;;;;;;5050461;28;20466;-71
2021/06/01 01:42:17;;;;;;;1.20;0.90;;;9.50;98.00;;;;;;5048571;28;20462;-70
2021/06/01 01:44:51;;;;;;;1.20;1.00;;;9.50;98.00;;;;;;5050549;28;20549;-71
2021/06/01 01:50:14;;;;;;;1.20;1.10;;;9.30;98.00;;;;;;5027805;28;20474;-71
2021/06/01 01:52:42;;;;;;;1.30;1.10;;;9.30;98.00;;;;;;5051690;28;20962;-70
2021/06/01 01:55:11;;;;;;;1.20;0.97;;;9.40;98.00;;;;;;5054322;28;20485;-70
2021/06/01 01:57:41;;;;;;;1.37;1.10;;;9.40;98.00;;;;;;5052221;28;20793;-71
2021/06/01 02:00:10;;;;;;;1.20;1.00;;;9.30;98.00;;;;;;5053985;28;20547;-70
2021/06/01 02:02:37;;;;;;;1.30;1.10;;;9.50;98.00;;;;;;5052080;28;20528;-71
2021/06/01 02:05:06;;;;;;;1.20;1.00;;;9.50;98.00;;;;;;5054079;28;20986;-71
2021/06/01 02:07:34;;;;;;;1.30;1.10;;;9.60;98.00;;;;;;5051836;28;20843;-71
2021/06/01 02:10:03;;;;;;;1.20;1.00;;;9.30;98.00;;;;;;5054010;28;20457;-71
2021/06/01 02:12:30;;;;;;;1.20;1.00;;;9.20;98.00;;;;;;5051823;28;20465;-71
2021/06/01 02:14:56;;;;;;;1.50;1.10;;;9.10;98.00;;;;;;5053622;28;20491;-70
2021/06/01 02:17:23;;;;;;;1.20;1.00;;;9.00;98.00;;;;;;5051756;28;20812;-70
2021/06/01 02:19:49;;;;;;;1.60;1.00;;;8.90;98.00;;;;;;5053604;28;20450;-70
2021/06/01 02:22:22;;;;;;;1.40;1.20;;;9.00;98.00;;;;;;5051594;28;20512;-71
2021/06/01 02:24:54;;;;;;;1.20;1.00;;;8.90;98.00;;;;;;5053570;28;20473;-71
2021/06/01 02:27:26;;;;;;;1.40;1.20;;;8.80;98.00;;;;;;5051429;28;20494;-71
2021/06/01 02:30:02;;;;;;;1.20;0.97;;;8.70;98.00;;;;;;5053502;28;20462;-70
2021/06/01 02:32:33;;;;;;;1.70;1.13;;;8.70;98.00;;;;;;5051311;28;20839;-71
2021/06/01 02:35:03;;;;;;;1.20;1.00;;;8.70;98.00;;;;;;5053397;28;20975;-71
2021/06/01 02:37:30;;;;;;;1.20;1.10;;;8.70;98.00;;;;;;5051300;28;20465;-71
2021/06/01 02:39:59;;;;;;;1.20;1.10;;;8.70;98.00;;;;;;5053199;28;20457;-71
2021/06/01 02:42:26;;;;;;;1.57;1.17;;;8.60;98.00;;;;;;5050949;28;20454;-70
2021/06/01 02:44:53;;;;;;;1.20;1.00;;;8.70;98.00;;;;;;5053086;28;20459;-70
2021/06/01 02:47:20;;;;;;;1.20;1.00;;;8.60;98.00;;;;;;5050953;28;20492;-70
2021/06/01 02:49:46;;;;;;;1.20;1.00;;;8.50;98.00;;;;;;5053074;28;21092;-70
2021/06/01 02:52:14;;;;;;;1.20;1.00;;;8.60;98.00;;;;;;5051135;28;20480;-72
2021/06/01 02:54:41;;;;;;;1.20;1.00;;;8.40;98.00;;;;;;5052751;28;20854;-70
2021/06/01 02:57:10;;;;;;;1.20;1.00;;;8.50;98.00;;;;;;5052931;28;20454;-70
2021/06/01 02:59:39;;;;;;;1.20;1.00;;;8.50;98.00;;;;;;5050535;28;20477;-70
2021/06/01 03:02:06;;;;;;;1.20;1.00;;;8.50;98.00;;;;;;5052687;28;20520;-71
2021/06/01 03:04:32;;;;;;;1.20;1.00;;;8.50;98.00;;;;;;5050237;28;20532;-71
2021/06/01 03:07:00;;;;;;;1.20;1.00;;;8.50;98.00;;;;;;5052804;28;20819;-70
2021/06/01 03:09:27;;;;;;;1.20;1.10;;;8.30;98.00;;;;;;5050414;28;20492;-70
2021/06/01 03:11:54;;;;;;;1.40;1.20;;;8.20;98.00;;;;;;5052635;28;20527;-69
2021/06/01 03:14:22;;;;;;;1.60;1.20;;;8.20;98.00;;;;;;5050460;28;20457;-70
2021/06/01 03:16:48;;;;;;;1.93;1.30;;;8.20;98.00;;;;;;5052907;28;20975;-70
2021/06/01 03:19:15;;;;;;;1.20;1.03;;;8.30;98.00;;;;;;5050801;28;20464;-70
2021/06/01 03:21:41;;;;;;;1.20;1.00;;;8.40;98.00;;;;;;5052463;28;20457;-70
2021/06/01 03:24:09;;;;;;;1.30;1.13;;;8.30;98.00;;;;;;5050476;28;20489;-71
2021/06/01 03:26:35;;;;;;;1.20;1.07;;;8.40;98.00;;;;;;5052458;28;20460;-70
2021/06/01 03:29:02;;;;;;;1.43;1.20;;;8.30;98.00;;;;;;5050250;28;20539;-70
2021/06/01 03:31:31;;;;;;;1.30;1.10;;;8.20;98.00;;;;;;5052116;28;20468;-71
2021/06/01 03:33:58;;;;;;;1.47;1.33;;;8.30;98.00;;;;;;5050198;28;20944;-71
2021/06/01 03:36:24;;;;;;;1.20;0.90;;;8.50;98.00;;;;;;5052132;28;20457;-71
2021/06/01 03:38:52;;;;;;;1.30;1.30;;;8.60;98.00;;;;;;5050374;28;20459;-71
2021/06/01 03:41:19;;;;;;;1.20;1.00;;;8.40;98.00;;;;;;5052046;28;20452;-70
2021/06/01 03:43:45;;;;;;;1.30;1.10;;;8.40;98.00;;;;;;5049972;28;20971;-70
2021/06/01 03:46:13;;;;;;;1.20;1.00;;;8.50;98.00;;;;;;5052205;28;20490;-71
2021/06/01 03:48:41;;;;;;;1.20;1.00;;;8.60;98.00;;;;;;5049554;28;20535;-70
2021/06/01 03:51:07;;;;;;;1.20;1.00;;;8.60;98.00;;;;;;5051621;28;20488;-71
2021/06/01 03:53:34;;;;;;;1.47;1.30;;;8.70;98.00;;;;;;5049788;28;20469;-70
2021/06/01 03:56:01;;;;;;;1.53;1.37;;;8.60;98.00;;;;;;5051806;28;20512;-70
2021/06/01 03:58:27;;;;;;;1.73;1.10;;;8.70;98.00;;;;;;5049534;28;20449;-71
2021/06/01 04:00:54;;;;;;;1.20;0.90;;;8.80;98.00;;;;;;5051690;28;20458;-70
2021/06/01 04:03:20;;;;;;;1.30;1.17;;;8.60;98.00;;;;;;5049746;28;20490;-71
2021/06/01 04:05:48;;;;;;;1.20;0.90;;;8.50;98.00;;;;;;5051506;28;20494;-69
2021/06/01 04:08:15;;;;;;;2.47;1.10;;;8.40;98.00;;;;;;5049739;28;20490;-71
2021/06/01 04:10:41;;;;;;;1.43;1.10;;;8.40;98.00;;;;;;5051692;28;20472;-71
2021/06/01 04:13:07;;;;;;;1.20;1.00;;;8.30;98.00;;;;;;5048759;28;20456;-70
2021/06/01 04:15:34;;;;;;;1.40;1.10;;;8.20;98.00;;;;;;5051456;28;20480;-71
2021/06/01 04:18:00;;;;;;;1.20;0.90;;;8.20;98.00;;;;;;5048193;28;21038;-70
2021/06/01 04:20:27;;;;;;;1.20;0.90;;;8.10;98.00;;;;;;5051379;28;20457;-70
2021/06/01 04:22:55;;;;;;;2.03;1.33;;;8.20;98.00;;;;;;5049303;28;20468;-70
2021/06/01 04:25:21;;;;;;;1.40;1.27;;;8.40;98.00;;;;;;5051384;28;20502;-71
2021/06/01 04:27:48;;;;;;;1.20;1.00;;;8.50;98.00;;;;;;5048158;28;20488;-71
2021/06/01 04:30:15;;;;;;;1.20;1.10;;;8.50;98.00;;;;;;5051456;28;20464;-70
2021/06/01 04:32:42;;;;;;;1.70;1.47;;;8.30;98.00;;;;;;5049377;28;20912;-70
2021/06/01 04:35:09;;;;;;;1.20;1.07;;;8.30;98.00;;;;;;5051276;28;20468;-70
2021/06/01 04:37:36;;;;;;;1.70;1.30;;;8.30;98.00;;;;;;5049262;28;20465;-70
2021/06/01 04:40:05;;;;;;;1.40;1.17;;;8.40;98.00;;;;;;5051170;28;20485;-70
2021/06/01 04:42:31;;;;;;;1.20;1.00;;;8.70;98.00;;;;;;5048926;28;20511;-69
2021/06/01 04:44:58;;;;;;;1.30;1.10;;;8.90;98.00;;;;;;5050954;28;20515;-71
2021/06/01 04:47:24;;;;;;;1.50;1.20;;;9.00;98.00;;;;;;5048895;28;20465;-72
2021/06/01 04:49:50;;;;;;;1.20;1.03;;;9.10;98.00;;;;;;5050892;28;20458;-71
2021/06/01 04:52:17;;;;;;;1.83;1.17;;;8.90;98.00;;;;;;5050900;28;20446;-71
2021/06/01 04:54:43;;;;;;;1.80;1.20;;;8.90;98.00;;;;;;5048998;28;20550;-70
2021/06/01 04:57:12;;;;;;;1.20;0.90;;;8.90;98.00;;;;;;5050903;28;20949;-70
2021/06/01 04:59:38;;;;;;;1.20;1.00;;;8.90;98.00;;;;;;5047572;28;20455;-70
2021/06/01 05:02:05;;;;;;;2.80;1.70;;;8.90;98.00;;;;;;5050839;28;20458;-71
2021/06/01 05:04:32;;;;;;;1.30;1.07;;;9.00;98.00;;;;;;5048217;28;20465;-70
2021/06/01 05:06:59;;;;;;;1.20;0.90;;;9.10;98.00;;;;;;5050825;28;20967;-70
2021/06/01 05:09:26;;;;;;;2.80;1.50;;;9.10;98.00;;;;;;5048535;28;20494;-70
2021/06/01 05:11:53;;;;;;;1.43;1.27;;;9.20;98.00;;;;;;5050721;28;20886;-70
2021/06/01 05:14:20;;;;;;;1.87;1.13;;;9.40;98.00;;;;;;5049009;28;20461;-71
2021/06/01 05:16:47;;;;;;;1.20;1.00;;;9.50;98.00;;;;;;5050558;28;20450;-71
2021/06/01 05:19:14;;;;;;;1.50;1.07;;;9.70;98.00;;;;;;5047224;28;20542;-71
2021/06/01 05:21:40;;;;;;;1.30;1.00;;;9.70;98.00;;;;;;5050675;28;20502;-70
2021/06/01 05:24:07;;;;;;;2.03;1.83;;;9.80;98.00;;;;;;5050700;28;20455;-70
2021/06/01 05:26:34;;;;;;;1.30;1.00;;;9.90;98.00;;;;;;5054434;28;20458;-71
2021/06/01 05:29:00;;;;;;;1.20;1.10;;;9.80;98.00;;;;;;5052594;28;20599;-70
2021/06/01 05:31:32;;;;;;;1.20;1.00;;;9.90;98.00;;;;;;5054574;28;20465;-71
2021/06/01 05:34:00;;;;;;;1.50;1.30;;;9.90;98.00;;;;;;5052506;28;20995;-70
2021/06/01 05:36:27;;;;;;;1.20;1.10;;;10.10;98.00;;;;;;5054751;28;20966;-70
2021/06/01 05:38:55;;;;;;;1.30;1.10;;;10.20;98.00;;;;;;5052879;28;20489;-70
2021/06/01 05:41:21;;;;;;;1.20;1.00;;;10.40;98.00;;;;;;5054625;28;20530;-71
2021/06/01 05:43:48;;;;;;;2.70;1.60;;;10.50;98.00;;;;;;5052483;28;20490;-72
2021/06/01 05:46:14;;;;;;;3.90;1.50;;;10.70;98.00;;;;;;5054489;28;20455;-70
2021/06/01 05:48:42;;;;;;;2.43;2.00;;;10.90;98.00;;;;;;5053471;28;20506;-71
2021/06/01 05:51:10;;;;;;;1.50;1.20;;;11.10;98.00;;;;;;5055156;28;20472;-71
2021/06/01 05:53:36;;;;;;;1.20;1.07;;;11.30;98.00;;;;;;5052898;28;20495;-71
2021/06/01 05:56:04;;;;;;;1.20;1.00;;;11.40;98.00;;;;;;5055307;28;20463;-71
2021/06/01 05:58:31;;;;;;;1.60;1.43;;;11.50;98.00;;;;;;5052058;28;20859;-70
2021/06/01 06:00:57;;;;;;;1.70;1.17;;;11.60;98.00;;;;;;5052966;28;20485;-71
2021/06/01 06:03:24;;;;;;;1.80;1.40;;;11.70;98.00;;;;;;5051902;28;21005;-70
2021/06/01 06:05:51;;;;;;;1.30;1.10;;;11.90;98.00;;;;;;5052758;28;20464;-71
2021/06/01 06:08:20;;;;;;;1.20;1.10;;;12.10;98.00;;;;;;5051904;28;20486;-71
2021/06/01 06:10:48;;;;;;;1.20;1.00;;;12.10;98.00;;;;;;5053836;28;20461;-71
2021/06/01 06:13:15;;;;;;;1.20;1.00;;;12.20;98.00;;;;;;5051810;28;20537;-71
2021/06/01 06:15:42;;;;;;;1.37;1.10;;;12.20;98.00;;;;;;5053712;28;20468;-71
2021/06/01 06:18:17;;;;;;;1.20;1.00;;;12.20;98.00;;;;;;5051714;28;20462;-72
2021/06/01 06:20:44;;;;;;;1.20;1.00;;;12.30;98.00;;;;;;5053741;28;20519;-70
2021/06/01 06:23:12;;;;;;;1.20;1.00;;;12.40;98.00;;;;;;5051685;28;20515;-69
2021/06/01 06:25:39;;;;;;;1.60;1.20;;;12.60;98.00;;;;;;5053367;28;20966;-70
2021/06/01 06:28:05;;;;;;;2.00;1.53;;;12.80;98.00;;;;;;5051458;28;20490;-72
2021/06/01 06:30:32;;;;;;;1.20;1.10;;;12.90;98.00;;;;;;5053460;28;21057;-71
2021/06/01 06:32:58;;;;;;;1.20;1.03;;;13.10;98.00;;;;;;5051240;28;20899;-70
2021/06/01 06:35:25;;;;;;;2.13;1.40;;;13.20;98.00;;;;;;5052527;28;20956;-71
2021/06/01 06:37:51;;;;;;;1.60;1.20;;;13.40;98.00;;;;;;5051479;28;20547;-72
2021/06/01 06:40:19;;;;;;;1.60;1.20;;;13.60;98.00;;;;;;5053300;28;21048;-70
2021/06/01 06:42:46;;;;;;;2.60;1.23;;;13.70;98.00;;;;;;5050994;28;20469;-70
2021/06/01 06:45:14;;;;;;;1.20;0.97;;;13.80;98.00;;;;;;5053286;28;20461;-73
2021/06/01 06:47:44;;;;;;;1.97;1.00;;;14.00;98.00;;;;;;5051249;28;20472;-71
2021/06/01 06:50:12;;;;;;;1.20;1.10;;;14.10;98.00;;;;;;5052895;28;20467;-71
2021/06/01 06:52:41;;;;;;;1.20;1.10;;;14.20;98.00;;;;;;5051159;28;20458;-71
2021/06/01 06:55:10;;;;;;;2.13;1.67;;;14.40;98.00;;;;;;5052936;28;20457;-71
2021/06/01 06:57:39;;;;;;;1.20;1.00;;;14.50;98.00;;;;;;5051802;28;20465;-71
2021/06/01 07:00:08;;;;;;;2.07;1.40;;;14.70;98.00;;;;;;5052952;28;20508;-71
2021/06/01 07:02:36;;;;;;;1.60;1.40;;;14.90;97.60;;;;;;5052452;28;20946;-70
2021/06/01 07:05:03;;;;;;;1.40;1.10;;;15.10;95.80;;;;;;5052249;28;20867;-71
2021/06/01 07:07:29;;;;;;;1.67;1.10;;;15.40;94.50;;;;;;5052918;28;20519;-71
2021/06/01 07:09:56;;;;;;;2.33;1.30;;;15.50;94.10;;;;;;5050679;28;20517;-73
2021/06/01 07:12:23;;;;;;;1.30;1.10;;;15.70;94.30;;;;;;5051413;28;20454;-70
2021/06/01 07:15:10;;;;;;;1.87;1.30;;;15.90;94.10;;;;;;5050599;28;20500;-72
2021/06/01 07:17:37;;;;;;;1.60;1.37;;;16.10;92.70;;;;;;5051138;28;20453;-71
2021/06/01 07:20:06;;;;;;;1.57;1.23;;;16.30;91.20;;;;;;5051925;28;20450;-70
2021/06/01 07:22:33;;;;;;;1.50;1.13;;;16.50;91.20;;;;;;5052092;28;20457;-72
2021/06/01 07:25:00;;;;;;;1.30;1.07;;;16.70;90.90;;;;;;5050047;28;20458;-72
2021/06/01 07:27:26;;;;;;;2.00;1.30;;;17.00;89.50;;;;;;5051825;28;20454;-71
2021/06/01 07:29:53;;;;;;;1.20;1.00;;;17.10;88.40;;;;;;5049618;28;20958;-72
2021/06/01 07:32:21;;;;;;;1.23;1.10;;;17.30;87.90;;;;;;5051834;28;20486;-75
2021/06/01 07:34:47;;;;;;;1.20;1.10;;;17.40;85.60;;;;;;5049552;28;20458;-75
2021/06/01 07:37:15;;;;;;;1.20;1.10;;;17.50;85.50;;;;;;5051799;28;20578;-75
2021/06/01 07:39:41;;;;;;;1.50;1.07;;;17.70;85.10;;;;;;5049174;28;20468;-75
2021/06/01 07:42:09;;;;;;;1.57;1.27;;;17.80;83.50;;;;;;5051567;28;20457;-76
2021/06/01 07:44:35;;;;;;;1.53;1.10;;;17.90;82.20;;;;;;5049123;28;20454;-75
2021/06/01 07:47:03;;;;;;;2.13;1.47;;;18.00;81.60;;;;;;5051644;28;20461;-75
2021/06/01 07:49:31;;;;;;;1.20;1.07;;;18.20;80.70;;;;;;5048889;28;20514;-75
2021/06/01 07:51:58;;;;;;;1.83;1.40;;;18.30;77.90;;;;;;5051326;28;20523;-75
2021/06/01 07:54:25;;;;;;;1.27;1.20;;;18.40;77.40;;;;;;5048631;28;20457;-74
2021/06/01 07:56:51;;;;;;;1.20;1.10;;;18.50;78.90;;;;;;5051449;28;20489;-75
2021/06/01 07:59:18;;;;;;;1.50;1.03;;;18.70;76.30;;;;;;5048860;28;20519;-75
2021/06/01 08:01:44;;;;;;;1.50;1.10;;;18.70;75.60;;;;;;5051171;28;20461;-76
2021/06/01 08:04:11;;;;;;;1.20;1.00;;;18.90;76.50;;;;;;5048021;28;20454;-75
2021/06/01 08:06:39;;;;;;;1.30;1.20;;;19.00;75.70;;;;;;5051039;28;20456;-74
2021/06/01 08:09:07;;;;;;;1.43;1.27;;;19.10;76.00;;;;;;5048581;28;20481;-75
2021/06/01 08:11:33;;;;;;;1.30;1.10;;;19.20;75.60;;;;;;5050954;28;20457;-75
2021/06/01 08:14:00;;;;;;;2.03;1.20;;;19.30;71.20;;;;;;5048913;28;20549;-74
2021/06/01 08:16:27;;;;;;;1.30;1.10;;;19.30;75.20;;;;;;5051090;28;20453;-75
2021/06/01 08:19:03;;;;;;;1.20;1.00;;;19.50;74.50;;;;;;5048576;28;20449;-74
2021/06/01 08:21:40;;;;;;;2.33;1.10;;;19.60;74.30;;;;;;5050938;28;20457;-74
2021/06/01 08:24:09;;;;;;;1.30;1.30;;;19.70;73.20;;;;;;5048916;28;20940;-76
2021/06/01 08:26:35;;;;;;;1.50;1.30;;;19.80;73.40;;;;;;5050796;28;20963;-76
2021/06/01 08:29:02;;;;;;;1.20;1.10;;;19.90;70.40;;;;;;5048405;28;20579;-75
2021/06/01 08:31:29;;;;;;;2.33;1.30;;;20.00;70.20;;;;;;5050809;28;20462;-75
2021/06/01 08:33:55;;;;;;;1.70;1.30;;;20.00;71.00;;;;;;5048635;28;20493;-76
2021/06/01 08:36:23;;;;;;;1.40;1.27;;;20.10;72.40;;;;;;5050876;28;20856;-75
2021/06/01 08:38:50;;;;;;;1.50;1.30;;;20.20;70.60;;;;;;5048277;28;21014;-75
2021/06/01 08:41:18;;;;;;;1.43;1.23;;;20.20;69.90;;;;;;5050711;28;20815;-75
2021/06/01 08:43:47;;;;;;;1.40;1.30;;;20.30;70.50;;;;;;5048230;28;20458;-75
2021/06/01 08:46:14;;;;;;;1.40;1.30;;;20.40;70.70;;;;;;5050734;28;20514;-75
2021/06/01 08:48:41;;;;;;;1.40;1.30;;;20.50;69.80;;;;;;5048207;28;20995;-76
2021/06/01 08:51:08;;;;;;;2.23;1.27;;;20.60;69.60;;;;;;5049954;28;20509;-75
2021/06/01 08:53:34;;;;;;;1.70;1.20;;;20.60;68.30;;;;;;5048164;28;20485;-75
2021/06/01 08:56:01;;;;;;;1.97;1.40;;;20.70;68.30;;;;;;5050180;28;20485;-75
2021/06/01 08:58:30;;;;;;;1.30;1.20;;;20.70;68.70;;;;;;5047706;28;20932;-75
2021/06/01 09:00:56;;;;;;;1.50;1.20;;;20.90;69.90;;;;;;5050182;28;20465;-76
2021/06/01 09:03:28;;;;;;;1.27;1.20;;;21.10;69.70;;;;;;5048120;28;20486;-73
2021/06/01 09:06:11;;;;;;;1.57;1.20;;;21.20;68.90;;;;;;5050220;28;20454;-72
2021/06/01 09:08:47;;;;;;;1.40;1.23;;;21.30;68.90;;;;;;5048487;28;20492;-72
2021/06/01 09:11:27;;;;;;;1.93;1.47;;;21.40;66.20;;;;;;5050668;28;20456;-73
2021/06/01 09:14:19;;;;;;;1.30;1.10;;;21.40;68.90;;;;;;5047407;28;20543;-74
2021/06/01 09:22:42;;;;;;;1.40;1.20;;;21.60;65.30;;;;;;5025825;28;20462;-73
2021/06/01 09:25:13;;;;;;;1.30;1.03;;;21.80;66.40;;;;;;5048343;28;20450;-73
2021/06/01 09:27:44;;;;;;;1.27;1.10;;;21.90;67.70;;;;;;5050826;28;20461;-72
2021/06/01 09:30:32;;;;;;;1.30;1.20;;;22.10;65.60;;;;;;5048280;28;20486;-73
2021/06/01 09:32:58;;;;;;;3.30;1.50;;;22.20;66.90;;;;;;5048459;28;20494;-72
2021/06/01 09:35:41;;;;;;;1.80;1.27;;;22.20;63.50;;;;;;5050872;28;20502;-72
2021/06/01 09:38:08;;;;;;;1.30;1.20;;;22.30;65.20;;;;;;5048451;28;20496;-72
2021/06/01 09:40:34;;;;;;;1.70;1.30;;;22.40;65.80;;;;;;5050617;28;20461;-71
2021/06/01 09:43:01;;;;;;;2.87;1.50;;;22.50;66.10;;;;;;5047938;28;20873;-72
2021/06/01 09:45:29;;;;;;;2.57;1.40;;;22.60;64.10;;;;;;5050558;28;20488;-72
2021/06/01 09:47:57;;;;;;;1.60;1.30;;;22.70;64.00;;;;;;5047631;28;20519;-72
2021/06/01 09:50:38;;;;;;;1.30;1.20;;;22.80;65.20;;;;;;5050247;28;20472;-72
2021/06/01 09:53:06;;;;;;;1.20;1.07;;;22.90;64.40;;;;;;5047953;28;20809;-72
2021/06/01 09:55:39;;;;;;;1.50;1.27;;;23.00;63.80;;;;;;5050293;28;20485;-72
2021/06/01 09:58:07;;;;;;;1.30;1.20;;;22.90;62.60;;;;;;5047768;28;20957;-72
2021/06/01 10:00:37;;;;;;;1.73;1.20;;;23.10;62.60;;;;;;5050127;28;20453;-71
2021/06/01 10:03:05;;;;;;;1.50;1.27;;;23.20;62.80;;;;;;5048149;28;20484;-75
2021/06/01 10:05:34;;;;;;;1.53;1.30;;;23.40;63.00;;;;;;5048917;28;20462;-71
2021/06/01 10:08:11;;;;;;;1.30;1.17;;;23.30;61.60;;;;;;5046591;28;20450;-73
2021/06/01 10:10:38;;;;;;;1.47;1.23;;;23.40;62.80;;;;;;5051322;28;20461;-72
2021/06/01 10:13:06;;;;;;;2.37;1.33;;;23.40;62.80;;;;;;5051484;28;20464;-73
2021/06/01 10:15:35;;;;;;;1.60;1.30;;;23.50;62.30;;;;;;5053725;28;20528;-72
2021/06/01 10:18:03;;;;;;;2.17;1.50;;;23.70;62.60;;;;;;5051521;28;20936;-72
2021/06/01 10:20:35;;;;;;;1.40;1.27;;;23.80;61.80;;;;;;5053641;28;20458;-70
2021/06/01 10:23:03;;;;;;;1.90;1.47;;;23.90;62.20;;;;;;5050171;28;20704;-73
2021/06/01 10:25:31;;;;;;;1.50;1.40;;;24.10;61.00;;;;;;5053388;28;20461;-72
2021/06/01 10:28:00;;;;;;;1.47;1.33;;;24.20;61.10;;;;;;5052021;28;20487;-72
2021/06/01 10:30:28;;;;;;;2.07;1.50;;;24.30;59.70;;;;;;5053425;28;20554;-73
2021/06/01 10:33:00;;;;;;;1.30;1.10;;;24.50;59.60;;;;;;5053133;28;20462;-74
2021/06/01 10:35:33;;;;;;;1.37;1.30;;;24.50;59.00;;;;;;5053170;28;21078;-71
2021/06/01 10:52:22;;;;;;;1.30;1.10;;;24.90;59.10;;;;;;5038646;28;20535;-73
2021/06/01 10:55:07;;;;;;;1.40;1.27;;;25.10;58.60;;;;;;5049844;28;20464;-73
2021/06/01 10:57:54;;;;;;;1.30;1.20;;;25.30;58.80;;;;;;5052480;28;20462;-72
2021/06/01 11:03:07;;;;;;;1.53;1.40;;;25.30;60.00;;;;;;5050241;28;20465;-75
2021/06/01 11:06:06;;;;;;;1.37;1.30;;;25.50;59.10;;;;;;5052622;28;20462;-73
2021/06/01 11:08:35;;;;;;;1.60;1.20;;;25.60;57.50;;;;;;5050029;28;20486;-74
2021/06/01 11:11:27;;;;;;;1.70;1.50;;;25.60;58.20;;;;;;5053143;28;20458;-73
2021/06/01 11:13:55;;;;;;;1.30;1.30;;;25.90;57.00;;;;;;5050148;28;20454;-72
2021/06/01 11:16:21;;;;;;;1.43;1.27;;;26.00;55.40;;;;;;5052297;28;20493;-73
2021/06/01 11:18:56;;;;;;;1.70;1.47;;;26.00;58.80;;;;;;5050843;28;20454;-72
2021/06/01 11:21:32;;;;;;;1.37;1.33;;;26.30;57.40;;;;;;5052748;28;20461;-71
2021/06/01 11:33:02;;;;;;;2.03;1.30;;;26.60;57.50;;;;;;5051831;28;20444;-71
2021/06/01 11:35:38;;;;;;;1.80;1.60;;;26.90;56.50;;;;;;5051133;28;20457;-71
2021/06/01 11:38:15;;;;;;;2.10;1.60;;;27.00;55.00;;;;;;5050354;28;20461;-72
2021/06/01 11:41:06;;;;;;;1.83;1.43;;;27.00;55.50;;;;;;5051679;28;20515;-72
2021/06/01 11:43:33;;;;;;;1.93;1.63;;;27.00;56.00;;;;;;5049247;28;20457;-72
2021/06/01 11:46:08;;;;;;;1.60;1.50;;;27.20;55.40;;;;;;5051897;28;20953;-73
2021/06/01 11:51:30;;;;;;;2.23;1.30;;;27.50;56.60;;;;;;5051170;28;20817;-73
2021/06/01 11:54:01;;;;;;;1.40;1.10;;;27.80;56.20;;;;;;5049275;28;20577;-73
2021/06/01 11:56:46;;;;;;;1.80;1.40;;;28.10;56.00;;;;;;5051207;28;20982;-72
2021/06/01 12:21:37;;;;;;;1.73;1.50;;;28.30;53.30;;;;;;5149292;27;21048;-72
2021/06/01 12:24:06;;;;;;;1.60;1.40;;;28.40;55.40;;;;;;5123850;28;20443;-72
2021/06/01 12:26:41;;;;;;;2.53;1.80;;;28.30;53.90;;;;;;5118809;28;20527;-73
2021/06/01 12:32:04;;;;;;;1.20;1.13;;;28.50;54.90;;;;;;5104034;28;20501;-72
2021/06/01 12:34:48;;;;;;;1.50;1.20;;;28.50;54.80;;;;;;5103864;28;20450;-70
2021/06/01 12:43:07;;;;;;;1.93;1.33;;;28.80;51.10;;;;;;5105553;28;20488;-72
2021/06/01 12:45:51;;;;;;;1.47;1.33;;;28.90;51.50;;;;;;5101735;28;20474;-71
2021/06/01 13:14:42;;;;;;;1.50;1.40;;;29.20;51.80;;;;;;5104381;28;20438;-73
2021/06/01 13:20:01;;;;;;;1.93;1.40;;;29.70;51.00;;;;;;5104375;28;20851;-71
2021/06/01 13:22:42;;;;;;;1.93;1.30;;;30.00;51.10;;;;;;5104251;28;20455;-72
2021/06/01 13:37:12;;;;;;;1.60;1.53;;;29.50;52.60;;;;;;5088557;28;20542;-74
2021/06/01 13:39:44;;;;;;;1.70;1.53;;;29.90;50.50;;;;;;5082385;28;20513;-76
2021/06/01 13:47:59;;;;;;;2.30;1.70;;;30.10;52.20;;;;;;5089443;28;20460;-74
2021/06/01 13:50:43;;;;;;;1.70;1.40;;;30.20;50.90;;;;;;5089355;28;20464;-72
2021/06/01 13:55:55;;;;;;;1.40;1.30;;;30.50;50.60;;;;;;5093216;28;20451;-73
2021/06/01 14:01:09;;;;;;;1.77;1.40;;;30.40;50.10;;;;;;5092682;28;20526;-74
2021/06/01 14:20:41;;;;;;;1.70;1.60;;;30.50;48.80;;;;;;5090249;28;20479;-74
2021/06/01 14:31:38;;;;;;;2.20;1.33;;;30.90;52.30;;;;;;5092744;28;20953;-74
2021/06/01 14:37:15;;;;;;;1.57;1.53;;;30.90;49.60;;;;;;5092808;28;20521;-74
2021/06/01 15:08:13;;;;;;;1.30;1.20;;;30.70;48.80;;;;;;5091993;28;20444;-74
2021/06/01 15:30:52;;;;;;;1.77;1.57;;;30.90;49.50;;;;;;5065550;28;20448;-73
2021/06/01 15:49:52;;;;;;;2.03;1.53;;;29.60;49.40;;;;;;5088949;28;20864;-73
2021/06/01 15:52:54;;;;;;;1.40;1.30;;;29.60;49.40;;;;;;5090022;28;20462;-73
2021/06/01 16:12:46;;;;;;;1.97;1.63;;;29.10;49.90;;;;;;5060050;28;21003;-74
2021/06/01 16:15:32;;;;;;;1.23;1.17;;;29.10;50.50;;;;;;5087331;28;20452;-73
2021/06/01 16:23:34;;;;;;;1.23;1.20;;;29.00;51.10;;;;;;5090570;28;20861;-73
2021/06/01 16:31:40;;;;;;;1.30;1.20;;;28.70;49.10;;;;;;5089663;28;20454;-73
2021/06/01 17:04:44;;;;;;;1.70;1.33;;;27.40;51.40;;;;;;5068476;28;20498;-74
2021/06/01 17:07:22;;;;;;;1.63;1.30;;;27.40;51.80;;;;;;5072846;28;20773;-75
2021/06/01 17:12:45;;;;;;;3.33;1.60;;;27.60;52.20;;;;;;5074774;28;20448;-72
2021/06/01 17:15:14;;;;;;;1.93;1.40;;;27.40;51.90;;;;;;5071977;28;20461;-74
2021/06/01 17:17:47;;;;;;;2.90;1.70;;;27.10;52.60;;;;;;5074502;28;20543;-73
2021/06/01 17:31:25;;;;;;;1.50;1.30;;;26.60;53.70;;;;;;5074224;28;20440;-73
2021/06/01 17:36:39;;;;;;;2.37;1.70;;;26.30;52.90;;;;;;5074006;28;20448;-74
2021/06/01 17:39:06;;;;;;;1.40;1.27;;;26.10;53.80;;;;;;5071655;28;20951;-74
2021/06/01 17:41:35;;;;;;;1.73;1.27;;;26.00;54.80;;;;;;5073802;28;20485;-74
2021/06/01 17:44:04;;;;;;;1.60;1.40;;;25.90;54.10;;;;;;5070872;28;20545;-74
2021/06/01 17:46:35;;;;;;;2.27;1.60;;;26.00;53.50;;;;;;5073796;28;20777;-73
2021/06/01 17:49:04;;;;;;;1.80;1.50;;;25.90;55.00;;;;;;5071377;28;20456;-72
2021/06/01 17:51:31;;;;;;;1.37;1.37;;;25.80;54.10;;;;;;5073742;28;20461;-73